createdAt,value
2023-05-02T00:03:55.812Z,8.00
2023-05-02T00:08:57.920Z,7.90
2023-05-02T00:13:59.512Z,7.10
2023-05-02T00:19:01.064Z,5.80
2023-05-02T00:24:02.602Z,6.60
2023-05-02T00:29:04.134Z,5.70
2023-05-02T00:34:05.641Z,7.00
2023-05-02T00:39:07.155Z,7.00
2023-05-02T00:44:08.662Z,6.30
2023-05-02T00:49:10.408Z,7.50
2023-05-02T00:54:13.800Z,5.50
2023-05-02T00:59:16.311Z,6.20
2023-05-02T01:04:36.509Z,6.80
2023-05-02T01:10:15.827Z,5.90
2023-05-02T01:15:20.669Z,6.50
2023-05-02T01:20:26.314Z,5.30
2023-05-02T01:25:37.883Z,6.20
2023-05-02T01:30:43.403Z,5.60
2023-05-02T01:35:48.252Z,5.60
2023-05-02T01:40:51.908Z,5.60
2023-05-02T01:50:58.772Z,8.20
2023-05-02T01:56:01.674Z,6.40
2023-05-02T02:01:05.843Z,7.00
2023-05-02T02:06:08.862Z,6.50
2023-05-02T02:11:13.037Z,7.10
2023-05-02T02:16:21.656Z,5.50
2023-05-02T02:21:25.292Z,6.70
2023-05-02T02:26:26.849Z,7.10
2023-05-02T02:31:36.215Z,6.60
2023-05-02T02:36:53.554Z,6.50
2023-05-02T02:42:07.552Z,7.50
2023-05-02T02:47:14.700Z,6.60
2023-05-02T02:52:33.903Z,6.70
2023-05-02T02:58:17.594Z,8.60
2023-05-02T03:03:23.296Z,11.10
2023-05-02T03:08:25.204Z,14.50
2023-05-02T03:13:26.694Z,6.70
2023-05-02T03:18:28.213Z,9.30
2023-05-02T03:23:29.729Z,8.40
2023-05-02T03:28:31.385Z,10.40
2023-05-02T03:33:33.145Z,6.80
2023-05-02T03:38:34.700Z,6.90
2023-05-02T03:43:36.263Z,6.30
2023-05-02T03:48:38.695Z,6.10
2023-05-02T03:53:40.746Z,5.80
2023-05-02T03:58:42.252Z,7.60
2023-05-02T04:03:43.991Z,9.20
2023-05-02T04:08:45.764Z,6.50
2023-05-02T04:13:47.296Z,7.50
2023-05-02T04:18:48.840Z,5.70
2023-05-02T04:23:50.329Z,7.20
2023-05-02T04:28:51.789Z,6.80
2023-05-02T04:33:53.494Z,6.10
2023-05-02T04:38:54.976Z,4.20
2023-05-02T04:43:56.511Z,5.70
2023-05-02T04:48:58.027Z,4.80
2023-05-02T04:53:59.513Z,4.70
2023-05-02T04:59:01.043Z,5.70
2023-05-02T05:04:03.688Z,5.90
2023-05-02T05:09:06.125Z,4.80
2023-05-02T05:14:07.627Z,5.50
2023-05-02T05:19:09.164Z,5.30
2023-05-02T05:24:10.678Z,5.30
2023-05-02T05:29:12.150Z,5.90
2023-05-02T05:34:16.767Z,5.70
2023-05-02T05:39:18.407Z,4.80
2023-05-02T05:44:22.103Z,5.50
2023-05-02T05:49:24.439Z,4.80
2023-05-02T05:54:26.019Z,4.80
2023-05-02T05:59:27.535Z,4.70
2023-05-02T06:04:29.068Z,4.90
2023-05-02T06:09:30.878Z,5.20
2023-05-02T06:14:32.342Z,5.10
2023-05-02T06:19:33.846Z,6.00
2023-05-02T06:24:35.410Z,5.30
2023-05-02T06:29:36.912Z,5.70
2023-05-02T06:34:38.409Z,5.50
2023-05-02T06:39:39.883Z,5.60
2023-05-02T06:44:41.357Z,4.90
2023-05-02T06:49:42.841Z,5.10
2023-05-02T06:54:44.389Z,4.60
2023-05-02T06:59:45.880Z,4.80
2023-05-02T07:04:47.393Z,4.30
2023-05-02T07:09:49.054Z,4.50
2023-05-02T07:14:50.524Z,4.80
2023-05-02T07:19:52.706Z,5.00
2023-05-02T07:25:02.309Z,4.30
2023-05-02T07:30:05.219Z,7.80
2023-05-02T07:35:07.330Z,5.10
2023-05-02T07:40:09.890Z,5.20
2023-05-02T07:45:11.468Z,5.70
2023-05-02T07:50:13.135Z,4.60
2023-05-02T07:55:15.269Z,4.50
2023-05-02T08:00:17.865Z,4.60
2023-05-02T08:05:19.500Z,3.70
2023-05-02T08:10:21.059Z,2.80
2023-05-02T08:15:22.568Z,2.60
2023-05-02T08:20:24.091Z,3.60
2023-05-02T08:25:25.663Z,3.20
2023-05-02T08:30:33.838Z,3.10
2023-05-02T08:35:35.315Z,3.40
2023-05-02T08:40:41.401Z,3.50
2023-05-02T08:45:45.446Z,3.00
2023-05-02T08:50:48.484Z,3.50
2023-05-02T08:55:50.378Z,3.30
2023-05-02T09:00:54.710Z,3.10
2023-05-02T09:06:12.966Z,3.10
2023-05-02T09:11:16.001Z,4.00
2023-05-02T09:16:26.902Z,3.30
2023-05-02T09:21:41.475Z,3.80
2023-05-02T09:31:55.688Z,3.90
2023-05-02T09:36:58.642Z,3.30
2023-05-02T09:42:00.429Z,3.30
2023-05-02T09:47:02.322Z,3.70
2023-05-02T09:52:15.625Z,3.70
2023-05-02T09:57:17.163Z,3.90
2023-05-02T10:02:21.862Z,4.20
2023-05-02T10:07:25.743Z,5.40
2023-05-02T10:12:30.711Z,4.00
2023-05-02T10:17:39.707Z,3.80
2023-05-02T10:22:42.795Z,4.40
2023-05-02T10:27:46.274Z,4.30
2023-05-02T10:32:49.451Z,3.90
2023-05-02T10:37:52.075Z,4.50
2023-05-02T10:42:54.222Z,3.90
2023-05-02T10:48:27.749Z,4.70
2023-05-02T10:53:36.927Z,4.30
2023-05-02T10:59:18.664Z,5.20
2023-05-02T11:04:20.162Z,4.60
2023-05-02T11:09:24.407Z,4.70
2023-05-02T11:14:25.948Z,4.80
2023-05-02T11:19:31.045Z,5.00
2023-05-02T11:24:40.093Z,4.70
2023-05-02T11:30:14.924Z,5.60
2023-05-02T11:35:36.096Z,5.20
2023-05-02T11:40:37.816Z,4.50
2023-05-02T11:45:42.585Z,4.90
2023-05-02T11:50:56.323Z,5.80
2023-05-02T11:56:01.542Z,6.30
2023-05-02T12:01:16.424Z,5.70
2023-05-02T12:06:20.048Z,5.60
2023-05-02T12:11:23.569Z,6.60
2023-05-02T12:16:25.609Z,4.90
2023-05-02T12:21:33.208Z,5.90
2023-05-02T12:26:34.864Z,4.70
2023-05-02T12:31:36.670Z,5.30
2023-05-02T12:36:45.445Z,5.00
2023-05-02T12:41:47.352Z,5.50
2023-05-02T12:47:01.514Z,5.70
2023-05-02T12:52:03.286Z,4.70
2023-05-02T12:57:05.448Z,4.80
2023-05-02T13:02:07.720Z,3.90
2023-05-02T13:07:09.283Z,3.70
2023-05-02T13:12:10.996Z,3.80
2023-05-02T13:17:13.120Z,3.60
2023-05-02T13:22:14.661Z,4.50
2023-05-02T13:27:18.441Z,3.20
2023-05-02T13:32:20.043Z,4.10
2023-05-02T13:37:21.988Z,5.20
2023-05-02T13:42:23.599Z,4.60
2023-05-02T13:47:25.445Z,4.50
2023-05-02T13:52:27.059Z,5.20
2023-05-02T13:57:28.559Z,4.80
2023-05-02T14:02:30.145Z,5.00
2023-05-02T14:07:31.911Z,3.70
2023-05-02T14:12:33.398Z,5.20
2023-05-02T14:17:35.140Z,4.50
2023-05-02T14:22:36.764Z,4.20
2023-05-02T14:27:38.301Z,3.90
2023-05-02T14:32:39.843Z,4.30
2023-05-02T14:37:45.063Z,3.60
2023-05-02T14:42:46.738Z,4.30
2023-05-02T14:47:48.324Z,4.20
2023-05-02T14:52:50.934Z,4.30
2023-05-02T15:02:53.981Z,4.20
2023-05-02T15:07:55.550Z,5.30
2023-05-02T15:12:57.023Z,5.40
2023-05-02T15:17:58.577Z,4.60
2023-05-02T15:23:03.460Z,5.20
2023-05-02T15:28:05.231Z,3.90
2023-05-02T15:33:07.003Z,4.40
2023-05-02T15:38:09.202Z,4.00
2023-05-02T15:43:10.889Z,3.50
2023-05-02T15:48:12.480Z,16.00
2023-05-02T15:53:15.911Z,6.00
2023-05-02T15:58:17.817Z,16.70
2023-05-02T16:03:19.426Z,6.70
2023-05-02T16:08:21.460Z,17.40
2023-05-02T16:13:22.979Z,9.60
2023-05-02T16:18:28.460Z,5.70
2023-05-02T16:23:30.275Z,6.80
2023-05-02T16:28:31.792Z,9.50
2023-05-02T16:33:33.693Z,8.00
2023-05-02T16:38:36.583Z,7.50
2023-05-02T16:43:38.220Z,6.30
2023-05-02T16:48:39.691Z,33.60
2023-05-02T16:53:43.434Z,49.50
2023-05-02T16:58:44.950Z,20.40
2023-05-02T17:03:46.979Z,19.70
2023-05-02T17:08:48.650Z,17.30
2023-05-02T17:13:51.111Z,24.80
2023-05-02T17:18:53.624Z,30.80
2023-05-02T17:23:55.241Z,41.90
2023-05-02T17:28:56.717Z,37.60
2023-05-02T17:33:58.184Z,28.90
2023-05-02T17:38:59.769Z,28.00
2023-05-02T17:44:01.282Z,35.80
2023-05-02T17:49:02.905Z,27.60
2023-05-02T17:54:04.607Z,21.40
2023-05-02T17:59:06.148Z,78.10
2023-05-02T18:04:07.806Z,18.30
2023-05-02T18:09:09.490Z,13.00
2023-05-02T18:14:11.008Z,17.50
2023-05-02T18:19:12.535Z,18.00
2023-05-02T18:24:14.096Z,21.60
2023-05-02T18:29:15.784Z,27.50
2023-05-02T18:34:17.294Z,25.90
2023-05-02T18:39:21.487Z,20.20
2023-05-02T18:44:23.080Z,18.70
2023-05-02T18:49:26.283Z,15.60
2023-05-02T18:54:28.727Z,13.90
2023-05-02T18:59:30.222Z,13.10
2023-05-02T19:04:31.984Z,13.40
2023-05-02T19:09:33.496Z,13.30
2023-05-02T19:14:36.489Z,11.80
2023-05-02T19:24:39.618Z,17.30
2023-05-02T19:29:41.665Z,18.80
2023-05-02T19:34:43.143Z,13.70
2023-05-02T19:39:44.671Z,13.00
2023-05-02T19:44:48.099Z,20.40
2023-05-02T19:49:51.510Z,16.50
2023-05-02T19:54:53.720Z,15.30
2023-05-02T19:59:55.691Z,13.70
2023-05-02T20:04:57.156Z,15.50
2023-05-02T20:09:58.704Z,16.90
2023-05-02T20:15:00.222Z,15.40
2023-05-02T20:20:07.180Z,13.90
2023-05-02T20:25:11.518Z,10.80
2023-05-02T20:30:19.562Z,10.90
2023-05-02T20:35:21.129Z,10.70
2023-05-02T20:40:23.373Z,7.20
2023-05-02T20:45:25.085Z,5.30
2023-05-02T20:50:27.200Z,5.90
2023-05-02T20:55:29.071Z,6.70
2023-05-02T21:00:34.517Z,8.20
2023-05-02T21:05:35.994Z,6.40
2023-05-02T21:10:37.513Z,6.90
2023-05-02T21:15:39.985Z,5.30
2023-05-02T21:20:41.652Z,7.20
2023-05-02T21:25:43.269Z,6.80
2023-05-02T21:30:47.222Z,5.90
2023-05-02T21:35:55.873Z,9.20
2023-05-02T21:41:04.902Z,6.70
2023-05-02T21:46:06.507Z,7.20
2023-05-02T21:51:12.053Z,6.70
2023-05-02T21:56:13.577Z,6.40
2023-05-02T22:01:15.987Z,7.70
2023-05-02T22:06:17.765Z,5.30
2023-05-02T22:11:21.782Z,6.70
2023-05-02T22:16:24.037Z,6.60
2023-05-02T22:21:25.957Z,6.10
2023-05-02T22:26:27.515Z,5.30
2023-05-02T22:31:29.099Z,6.00
2023-05-02T22:36:31.305Z,4.90
2023-05-02T22:41:32.781Z,4.50
2023-05-02T22:46:34.358Z,4.70
2023-05-02T22:51:37.945Z,3.80
2023-05-02T22:56:39.468Z,2.90
2023-05-02T23:01:41.360Z,4.00
2023-05-02T23:06:43.083Z,4.20
2023-05-02T23:11:44.691Z,4.40
2023-05-02T23:16:46.693Z,4.40
2023-05-02T23:21:48.248Z,4.80
2023-05-02T23:26:49.878Z,3.90
2023-05-02T23:31:53.762Z,4.20
2023-05-02T23:36:55.537Z,4.00
2023-05-02T23:41:57.085Z,4.50
2023-05-02T23:46:59.719Z,5.00
2023-05-02T23:52:02.750Z,4.40
2023-05-02T23:57:04.577Z,4.10
